Terminal Aerodrome Forecast
Issued by NWS

Home | Current Version | Previous Version | Text Only | Print | Product List | Glossary On
Versions: 1 2 3 4 5 6 7 8 9 10 11 12 13 14 15 16 17 18 19 20 21 22 23 24 25
000
FTUS41 KBUF 190700 AAA
TAFIAG
TAF AMD
KIAG 190727Z 1907/2006 00000KT 6SM BR SCT002
      TEMPO 1908/1910 3SM BR
     FM191000 VRB03KT P6SM FEW025 SCT035
     FM191300 11008KT P6SM FEW040 FEW200
     FM192000 13006KT P6SM SKC
     FM200400 16007KT P6SM BKN250 WS015/20040KT=

USA.gov is the U.S. government's official web portal to all federal, state and local government web resources and services.